sensor_id;sensor_type;location;lat;lon;timestamp;pressure;altitude;pressure_sealevel;temperature;humidity
74232;BME280;62590;52.430;4.902;2022-10-16T00:01:12;100559.63;;;12.33;67.69
74232;BME280;62590;52.430;4.902;2022-10-16T00:03:39;100560.78;;;12.30;67.68
74232;BME280;62590;52.430;4.902;2022-10-16T00:06:06;100565.47;;;12.28;67.68
74232;BME280;62590;52.430;4.902;2022-10-16T00:08:32;100568.84;;;12.30;67.69
74232;BME280;62590;52.430;4.902;2022-10-16T00:11:10;100546.31;;;12.31;67.69
74232;BME280;62590;52.430;4.902;2022-10-16T00:13:37;100555.16;;;12.24;67.69
74232;BME280;62590;52.430;4.902;2022-10-16T00:16:04;100550.47;;;12.26;67.68
74232;BME280;62590;52.430;4.902;2022-10-16T00:18:30;100548.81;;;12.25;67.69
74232;BME280;62590;52.430;4.902;2022-10-16T00:21:00;100551.94;;;12.20;67.68
74232;BME280;62590;52.430;4.902;2022-10-16T00:23:26;100564.25;;;12.23;67.69
74232;BME280;62590;52.430;4.902;2022-10-16T00:25:59;100568.44;;;12.25;67.68
74232;BME280;62590;52.430;4.902;2022-10-16T00:28:25;100575.00;;;12.23;67.69
74232;BME280;62590;52.430;4.902;2022-10-16T00:30:51;100573.63;;;12.19;67.68
74232;BME280;62590;52.430;4.902;2022-10-16T00:33:17;100565.88;;;12.16;67.69
74232;BME280;62590;52.430;4.902;2022-10-16T00:35:42;100564.16;;;12.15;67.67
74232;BME280;62590;52.430;4.902;2022-10-16T00:38:08;100564.31;;;12.13;67.67
74232;BME280;62590;52.430;4.902;2022-10-16T00:40:34;100558.78;;;12.15;67.67
74232;BME280;62590;52.430;4.902;2022-10-16T00:42:59;100557.00;;;12.06;67.66
74232;BME280;62590;52.430;4.902;2022-10-16T00:45:24;100555.72;;;12.10;67.67
74232;BME280;62590;52.430;4.902;2022-10-16T00:47:51;100545.34;;;12.15;67.67
74232;BME280;62590;52.430;4.902;2022-10-16T00:50:26;100535.59;;;12.14;67.67
74232;BME280;62590;52.430;4.902;2022-10-16T00:52:52;100529.97;;;12.07;67.67
74232;BME280;62590;52.430;4.902;2022-10-16T00:55:19;100543.41;;;12.07;67.67
74232;BME280;62590;52.430;4.902;2022-10-16T00:57:45;100553.41;;;12.15;67.67
74232;BME280;62590;52.430;4.902;2022-10-16T01:00:17;100560.31;;;12.17;67.68
74232;BME280;62590;52.430;4.902;2022-10-16T01:02:42;100550.72;;;12.15;67.68
74232;BME280;62590;52.430;4.902;2022-10-16T01:05:08;100556.25;;;12.13;67.67
74232;BME280;62590;52.430;4.902;2022-10-16T01:10:30;100565.16;;;12.14;67.67
74232;BME280;62590;52.430;4.902;2022-10-16T01:13:14;100569.69;;;12.13;67.67
74232;BME280;62590;52.430;4.902;2022-10-16T01:15:56;100557.22;;;12.12;67.67
74232;BME280;62590;52.430;4.902;2022-10-16T01:18:41;100576.22;;;12.11;67.68
74232;BME280;62590;52.430;4.902;2022-10-16T01:21:11;100576.38;;;12.09;67.68
74232;BME280;62590;52.430;4.902;2022-10-16T01:23:50;100569.97;;;12.10;67.68
74232;BME280;62590;52.430;4.902;2022-10-16T01:29:16;100564.84;;;11.99;67.67
74232;BME280;62590;52.430;4.902;2022-10-16T01:31:47;100561.44;;;11.97;67.67
74232;BME280;62590;52.430;4.902;2022-10-16T01:34:18;100559.59;;;11.98;67.67
74232;BME280;62590;52.430;4.902;2022-10-16T01:36:50;100567.84;;;11.96;67.67
74232;BME280;62590;52.430;4.902;2022-10-16T01:39:18;100563.47;;;11.95;67.65
74232;BME280;62590;52.430;4.902;2022-10-16T01:41:51;100564.13;;;11.97;67.67
74232;BME280;62590;52.430;4.902;2022-10-16T01:44:23;100566.44;;;11.92;67.66
74232;BME280;62590;52.430;4.902;2022-10-16T01:46:52;100570.69;;;11.95;67.66
74232;BME280;62590;52.430;4.902;2022-10-16T01:49:20;100565.31;;;11.95;67.66
74232;BME280;62590;52.430;4.902;2022-10-16T01:51:49;100556.00;;;11.89;67.66
74232;BME280;62590;52.430;4.902;2022-10-16T01:54:17;100564.28;;;11.96;67.67
74232;BME280;62590;52.430;4.902;2022-10-16T01:56:44;100563.16;;;11.98;67.68
74232;BME280;62590;52.430;4.902;2022-10-16T01:59:13;100560.38;;;11.90;67.66
74232;BME280;62590;52.430;4.902;2022-10-16T02:01:42;100574.50;;;11.92;67.66
74232;BME280;62590;52.430;4.902;2022-10-16T02:04:21;100569.28;;;11.91;67.66
74232;BME280;62590;52.430;4.902;2022-10-16T02:06:48;100571.13;;;11.90;67.66
74232;BME280;62590;52.430;4.902;2022-10-16T02:09:14;100577.91;;;11.94;67.66
74232;BME280;62590;52.430;4.902;2022-10-16T02:11:42;100586.81;;;11.95;67.65
74232;BME280;62590;52.430;4.902;2022-10-16T02:14:07;100578.75;;;11.95;67.66
74232;BME280;62590;52.430;4.902;2022-10-16T02:16:39;100591.50;;;11.93;67.67
74232;BME280;62590;52.430;4.902;2022-10-16T02:19:05;100589.94;;;11.90;67.66
74232;BME280;62590;52.430;4.902;2022-10-16T02:21:43;100591.50;;;11.93;67.66
74232;BME280;62590;52.430;4.902;2022-10-16T02:24:48;100586.28;;;11.91;67.66
74232;BME280;62590;52.430;4.902;2022-10-16T02:27:27;100591.25;;;11.86;67.65
74232;BME280;62590;52.430;4.902;2022-10-16T02:30:06;100596.78;;;11.85;67.67
74232;BME280;62590;52.430;4.902;2022-10-16T02:32:34;100597.78;;;11.84;67.65
74232;BME280;62590;52.430;4.902;2022-10-16T02:35:02;100597.78;;;11.84;67.66
74232;BME280;62590;52.430;4.902;2022-10-16T02:37:29;100594.00;;;11.77;67.65
74232;BME280;62590;52.430;4.902;2022-10-16T02:39:57;100589.63;;;11.76;67.65
74232;BME280;62590;52.430;4.902;2022-10-16T02:42:35;100602.06;;;11.77;67.65
74232;BME280;62590;52.430;4.902;2022-10-16T02:45:01;100599.50;;;11.75;67.66
74232;BME280;62590;52.430;4.902;2022-10-16T02:47:26;100607.72;;;11.74;67.65
74232;BME280;62590;52.430;4.902;2022-10-16T02:49:51;100606.34;;;11.69;67.65
74232;BME280;62590;52.430;4.902;2022-10-16T02:52:17;100617.94;;;11.70;67.65
74232;BME280;62590;52.430;4.902;2022-10-16T02:54:42;100613.69;;;11.67;67.64
74232;BME280;62590;52.430;4.902;2022-10-16T02:57:07;100616.66;;;11.64;67.64
74232;BME280;62590;52.430;4.902;2022-10-16T02:59:33;100611.72;;;11.60;67.64
74232;BME280;62590;52.430;4.902;2022-10-16T03:01:58;100617.09;;;11.60;67.64
74232;BME280;62590;52.430;4.902;2022-10-16T03:04:23;100622.78;;;11.57;67.64
74232;BME280;62590;52.430;4.902;2022-10-16T03:06:49;100626.16;;;11.59;67.63
74232;BME280;62590;52.430;4.902;2022-10-16T03:09:14;100622.47;;;11.60;67.64
74232;BME280;62590;52.430;4.902;2022-10-16T03:11:39;100632.25;;;11.61;67.63
74232;BME280;62590;52.430;4.902;2022-10-16T03:14:05;100629.72;;;11.59;67.63
74232;BME280;62590;52.430;4.902;2022-10-16T03:16:30;100624.59;;;11.56;67.63
74232;BME280;62590;52.430;4.902;2022-10-16T03:18:55;100621.09;;;11.56;67.63
74232;BME280;62590;52.430;4.902;2022-10-16T03:21:21;100629.28;;;11.54;67.63
74232;BME280;62590;52.430;4.902;2022-10-16T03:23:46;100629.28;;;11.54;67.63
74232;BME280;62590;52.430;4.902;2022-10-16T03:26:11;100631.97;;;11.54;67.63
74232;BME280;62590;52.430;4.902;2022-10-16T03:28:37;100629.00;;;11.57;67.64
74232;BME280;62590;52.430;4.902;2022-10-16T03:31:02;100633.09;;;11.61;67.62
74232;BME280;62590;52.430;4.902;2022-10-16T03:33:27;100632.25;;;11.61;67.63
74232;BME280;62590;52.430;4.902;2022-10-16T03:35:54;100623.16;;;11.62;67.63
74232;BME280;62590;52.430;4.902;2022-10-16T03:38:20;100632.56;;;11.58;67.63
74232;BME280;62590;52.430;4.902;2022-10-16T03:40:46;100633.13;;;11.52;67.64
74232;BME280;62590;52.430;4.902;2022-10-16T03:43:11;100633.13;;;11.52;67.63
74232;BME280;62590;52.430;4.902;2022-10-16T03:45:37;100639.47;;;11.51;67.63
74232;BME280;62590;52.430;4.902;2022-10-16T03:48:02;100642.63;;;11.46;67.63
74232;BME280;62590;52.430;4.902;2022-10-16T03:50:29;100643.34;;;11.48;67.64
74232;BME280;62590;52.430;4.902;2022-10-16T03:52:54;100647.41;;;11.52;67.63
74232;BME280;62590;52.430;4.902;2022-10-16T03:55:19;100647.16;;;11.46;67.63
74232;BME280;62590;52.430;4.902;2022-10-16T03:57:45;100652.38;;;11.47;67.62
74232;BME280;62590;52.430;4.902;2022-10-16T04:00:11;100661.59;;;11.45;67.62
74232;BME280;62590;52.430;4.902;2022-10-16T04:02:36;100654.50;;;11.44;67.62
74232;BME280;62590;52.430;4.902;2022-10-16T04:05:03;100662.88;;;11.41;67.62
74232;BME280;62590;52.430;4.902;2022-10-16T04:07:28;100659.88;;;11.44;67.63
74232;BME280;62590;52.430;4.902;2022-10-16T04:09:53;100660.88;;;11.43;67.63
74232;BME280;62590;52.430;4.902;2022-10-16T04:12:19;100670.19;;;11.48;67.63
74232;BME280;62590;52.430;4.902;2022-10-16T04:14:44;100670.31;;;11.47;67.62
74232;BME280;62590;52.430;4.902;2022-10-16T04:17:10;100674.31;;;11.43;67.63
74232;BME280;62590;52.430;4.902;2022-10-16T04:19:35;100675.16;;;11.43;67.62
74232;BME280;62590;52.430;4.902;2022-10-16T04:22:00;100676.00;;;11.44;67.63
74232;BME280;62590;52.430;4.902;2022-10-16T04:24:25;100675.44;;;11.40;67.62
74232;BME280;62590;52.430;4.902;2022-10-16T04:26:51;100676.00;;;11.44;67.63
74232;BME280;62590;52.430;4.902;2022-10-16T04:29:16;100675.31;;;11.42;67.62
74232;BME280;62590;52.430;4.902;2022-10-16T04:31:42;100671.06;;;11.39;67.61
74232;BME280;62590;52.430;4.902;2022-10-16T04:34:07;100668.09;;;11.42;67.63
74232;BME280;62590;52.430;4.902;2022-10-16T04:36:32;100675.44;;;11.40;67.62
74232;BME280;62590;52.430;4.902;2022-10-16T04:38:58;100676.16;;;11.42;67.62
74232;BME280;62590;52.430;4.902;2022-10-16T04:41:24;100679.81;;;11.41;67.62
74232;BME280;62590;52.430;4.902;2022-10-16T04:43:49;100678.25;;;11.48;67.63
74232;BME280;62590;52.430;4.902;2022-10-16T04:46:15;100681.53;;;11.42;67.63
74232;BME280;62590;52.430;4.902;2022-10-16T04:48:40;100691.97;;;11.45;67.63
74232;BME280;62590;52.430;4.902;2022-10-16T04:51:05;100685.06;;;11.43;67.63
74232;BME280;62590;52.430;4.902;2022-10-16T04:53:31;100698.03;;;11.47;67.63
74232;BME280;62590;52.430;4.902;2022-10-16T04:55:56;100698.59;;;11.51;67.63
74232;BME280;62590;52.430;4.902;2022-10-16T04:58:22;100709.34;;;11.51;67.63
74232;BME280;62590;52.430;4.902;2022-10-16T05:00:48;100717.97;;;11.54;67.63
74232;BME280;62590;52.430;4.902;2022-10-16T05:03:13;100720.09;;;11.51;67.63
74232;BME280;62590;52.430;4.902;2022-10-16T05:05:45;100722.22;;;11.47;67.62
74232;BME280;62590;52.430;4.902;2022-10-16T05:08:12;100725.91;;;11.46;67.62
74232;BME280;62590;52.430;4.902;2022-10-16T05:10:38;100728.06;;;11.43;67.62
74232;BME280;62590;52.430;4.902;2022-10-16T05:13:03;100729.88;;;11.52;67.63
74232;BME280;62590;52.430;4.902;2022-10-16T05:15:29;100738.06;;;11.50;67.63
74232;BME280;62590;52.430;4.902;2022-10-16T05:17:55;100730.13;;;11.49;67.61
74232;BME280;62590;52.430;4.902;2022-10-16T05:20:21;100731.84;;;11.50;67.63
74232;BME280;62590;52.430;4.902;2022-10-16T05:22:47;100725.63;;;11.49;67.63
74232;BME280;62590;52.430;4.902;2022-10-16T05:25:12;100733.53;;;11.51;67.62
74232;BME280;62590;52.430;4.902;2022-10-16T05:27:38;100731.84;;;11.50;67.63
74232;BME280;62590;52.430;4.902;2022-10-16T05:30:03;100743.44;;;11.50;67.64
74232;BME280;62590;52.430;4.902;2022-10-16T05:32:29;100754.88;;;11.52;67.63
74232;BME280;62590;52.430;4.902;2022-10-16T05:34:54;100754.19;;;11.50;67.63
74232;BME280;62590;52.430;4.902;2022-10-16T05:37:20;100750.81;;;11.48;67.63
74232;BME280;62590;52.430;4.902;2022-10-16T05:39:45;100753.63;;;11.47;67.62
74232;BME280;62590;52.430;4.902;2022-10-16T05:42:10;100763.53;;;11.46;67.62
74232;BME280;62590;52.430;4.902;2022-10-16T05:44:36;100773.56;;;11.44;67.63
74232;BME280;62590;52.430;4.902;2022-10-16T05:47:01;100758.44;;;11.43;67.63
74232;BME280;62590;52.430;4.902;2022-10-16T05:49:26;100773.13;;;11.49;67.63
74232;BME280;62590;52.430;4.902;2022-10-16T05:51:52;100767.91;;;11.47;67.62
74232;BME280;62590;52.430;4.902;2022-10-16T05:54:17;100773.13;;;11.49;67.63
74232;BME280;62590;52.430;4.902;2022-10-16T05:56:43;100755.19;;;11.49;67.63
74232;BME280;62590;52.430;4.902;2022-10-16T05:59:08;100766.63;;;11.51;67.64
74232;BME280;62590;52.430;4.902;2022-10-16T06:01:33;100767.47;;;11.52;67.63
74232;BME280;62590;52.430;4.902;2022-10-16T06:03:59;100780.22;;;11.50;67.63
74232;BME280;62590;52.430;4.902;2022-10-16T06:06:26;100767.47;;;11.52;67.63
74232;BME280;62590;52.430;4.902;2022-10-16T06:08:53;100765.91;;;11.49;67.63
74232;BME280;62590;52.430;4.902;2022-10-16T06:11:24;100772.72;;;11.53;67.63
74232;BME280;62590;52.430;4.902;2022-10-16T06:13:55;100769.47;;;11.50;67.63
74232;BME280;62590;52.430;4.902;2022-10-16T06:16:22;100772.00;;;11.51;67.63
74232;BME280;62590;52.430;4.902;2022-10-16T06:18:50;100779.34;;;11.49;67.63
74232;BME280;62590;52.430;4.902;2022-10-16T06:21:18;100776.81;;;11.48;67.63
74232;BME280;62590;52.430;4.902;2022-10-16T06:23:44;100788.13;;;11.51;67.63
74232;BME280;62590;52.430;4.902;2022-10-16T06:26:13;100783.75;;;11.50;67.63
74232;BME280;62590;52.430;4.902;2022-10-16T06:28:40;100788.13;;;11.51;67.63
74232;BME280;62590;52.430;4.902;2022-10-16T06:31:07;100787.13;;;11.52;67.63
74232;BME280;62590;52.430;4.902;2022-10-16T06:33:33;100796.03;;;11.53;67.62
74232;BME280;62590;52.430;4.902;2022-10-16T06:36:16;100802.53;;;11.60;67.63
74232;BME280;62590;52.430;4.902;2022-10-16T06:38:42;100808.91;;;11.59;67.64
74232;BME280;62590;52.430;4.902;2022-10-16T06:41:11;100813.41;;;11.58;67.63
74232;BME280;62590;52.430;4.902;2022-10-16T06:43:37;100816.13;;;11.58;67.63
74232;BME280;62590;52.430;4.902;2022-10-16T06:46:04;100828.84;;;11.56;67.63
74232;BME280;62590;52.430;4.902;2022-10-16T06:48:30;100823.47;;;11.56;67.63
74232;BME280;62590;52.430;4.902;2022-10-16T06:50:57;100832.69;;;11.54;67.63
74232;BME280;62590;52.430;4.902;2022-10-16T06:53:23;100838.16;;;11.52;67.62
74232;BME280;62590;52.430;4.902;2022-10-16T06:55:48;100835.50;;;11.52;67.64
74232;BME280;62590;52.430;4.902;2022-10-16T06:58:14;100851.75;;;11.51;67.64
74232;BME280;62590;52.430;4.902;2022-10-16T07:00:39;100851.75;;;11.51;67.63
74232;BME280;62590;52.430;4.902;2022-10-16T07:03:04;100853.63;;;11.50;67.63
74232;BME280;62590;52.430;4.902;2022-10-16T07:05:30;100848.50;;;11.47;67.62
74232;BME280;62590;52.430;4.902;2022-10-16T07:07:55;100855.59;;;11.48;67.63
74232;BME280;62590;52.430;4.902;2022-10-16T07:10:20;100865.19;;;11.51;67.63
74232;BME280;62590;52.430;4.902;2022-10-16T07:12:49;100868.88;;;11.50;67.63
74232;BME280;62590;52.430;4.902;2022-10-16T07:15:14;100879.50;;;11.51;67.63
74232;BME280;62590;52.430;4.902;2022-10-16T07:17:39;100890.94;;;11.53;67.63
74232;BME280;62590;52.430;4.902;2022-10-16T07:20:05;100889.38;;;11.51;67.63
74232;BME280;62590;52.430;4.902;2022-10-16T07:22:31;100902.41;;;11.55;67.64
74232;BME280;62590;52.430;4.902;2022-10-16T07:24:56;100908.50;;;11.57;67.64
74232;BME280;62590;52.430;4.902;2022-10-16T07:27:21;100910.16;;;11.58;67.63
74232;BME280;62590;52.430;4.902;2022-10-16T07:29:49;100911.88;;;11.59;67.63
74232;BME280;62590;52.430;4.902;2022-10-16T07:32:14;100921.78;;;11.59;67.64
74232;BME280;62590;52.430;4.902;2022-10-16T07:34:40;100927.56;;;11.64;67.64
74232;BME280;62590;52.430;4.902;2022-10-16T07:37:05;100928.88;;;11.69;67.65
74232;BME280;62590;52.430;4.902;2022-10-16T07:39:30;100934.53;;;11.76;67.65
74232;BME280;62590;52.430;4.902;2022-10-16T07:41:56;100941.75;;;11.85;67.65
74232;BME280;62590;52.430;4.902;2022-10-16T07:44:21;100943.72;;;11.93;67.67
74232;BME280;62590;52.430;4.902;2022-10-16T07:46:46;100942.47;;;11.97;67.66
74232;BME280;62590;52.430;4.902;2022-10-16T07:49:12;100951.34;;;11.97;67.67
74232;BME280;62590;52.430;4.902;2022-10-16T07:51:37;100954.75;;;11.99;67.66
74232;BME280;62590;52.430;4.902;2022-10-16T07:54:04;100958.16;;;12.01;67.66
74232;BME280;62590;52.430;4.902;2022-10-16T07:56:30;100963.13;;;12.06;67.66
74232;BME280;62590;52.430;4.902;2022-10-16T07:58:55;100961.41;;;12.05;67.66
74232;BME280;62590;52.430;4.902;2022-10-16T08:01:21;100954.34;;;12.04;67.67
74232;BME280;62590;52.430;4.902;2022-10-16T08:03:49;100958.72;;;12.05;67.66
74232;BME280;62590;52.430;4.902;2022-10-16T08:06:15;100969.91;;;12.10;67.67
74232;BME280;62590;52.430;4.902;2022-10-16T08:08:41;100973.31;;;12.12;67.67
74232;BME280;62590;52.430;4.902;2022-10-16T08:11:06;100965.66;;;12.17;67.68
74232;BME280;62590;52.430;4.902;2022-10-16T08:13:32;100982.19;;;12.22;67.67
74232;BME280;62590;52.430;4.902;2022-10-16T08:15:57;100981.59;;;12.37;67.69
74232;BME280;62590;52.430;4.902;2022-10-16T08:18:23;100981.31;;;12.40;67.68
74232;BME280;62590;52.430;4.902;2022-10-16T08:20:55;101001.41;;;12.46;67.69
74232;BME280;62590;52.430;4.902;2022-10-16T08:23:20;101002.84;;;12.40;67.69
74232;BME280;62590;52.430;4.902;2022-10-16T08:25:46;101006.22;;;12.42;67.69
74232;BME280;62590;52.430;4.902;2022-10-16T08:28:11;101007.41;;;12.40;67.70
74232;BME280;62590;52.430;4.902;2022-10-16T08:30:37;101004.69;;;12.40;67.69
74232;BME280;62590;52.430;4.902;2022-10-16T08:33:03;101008.22;;;12.40;67.69
74232;BME280;62590;52.430;4.902;2022-10-16T08:35:28;101020.25;;;12.46;67.70
74232;BME280;62590;52.430;4.902;2022-10-16T08:37:54;101025.22;;;12.50;67.72
74232;BME280;62590;52.430;4.902;2022-10-16T08:40:24;101020.69;;;12.51;67.70
74232;BME280;62590;52.430;4.902;2022-10-16T08:48:35;101032.38;;;12.79;67.72
74232;BME280;62590;52.430;4.902;2022-10-16T08:51:08;101042.25;;;12.88;67.73
74232;BME280;62590;52.430;4.902;2022-10-16T08:53:43;101033.78;;;12.83;67.72
74232;BME280;62590;52.430;4.902;2022-10-16T08:56:10;101037.03;;;12.86;67.72
74232;BME280;62590;52.430;4.902;2022-10-16T08:58:35;101049.63;;;12.95;67.73
74232;BME280;62590;52.430;4.902;2022-10-16T09:01:03;101052.72;;;13.00;67.74
74232;BME280;62590;52.430;4.902;2022-10-16T09:11:25;101076.22;;;13.17;67.75
74232;BME280;62590;52.430;4.902;2022-10-16T09:16:46;101082.00;;;13.22;67.75
74232;BME280;62590;52.430;4.902;2022-10-16T09:19:31;101096.59;;;13.29;67.75
74232;BME280;62590;52.430;4.902;2022-10-16T09:21:59;101077.00;;;13.37;67.77
74232;BME280;62590;52.430;4.902;2022-10-16T09:24:26;101098.69;;;13.35;67.75
74232;BME280;62590;52.430;4.902;2022-10-16T09:26:52;101092.88;;;13.40;67.77
74232;BME280;62590;52.430;4.902;2022-10-16T09:29:20;101099.81;;;13.42;67.77
74232;BME280;62590;52.430;4.902;2022-10-16T09:31:47;101099.69;;;13.34;67.76
74232;BME280;62590;52.430;4.902;2022-10-16T09:36:52;101108.16;;;13.12;67.75
74232;BME280;62590;52.430;4.902;2022-10-16T09:39:17;101104.19;;;13.07;67.75
74232;BME280;62590;52.430;4.902;2022-10-16T09:41:44;101114.13;;;13.06;67.74
74232;BME280;62590;52.430;4.902;2022-10-16T09:44:23;101114.66;;;13.00;67.74
74232;BME280;62590;52.430;4.902;2022-10-16T09:47:16;101124.88;;;12.97;67.74
74232;BME280;62590;52.430;4.902;2022-10-16T09:49:59;101116.09;;;12.95;67.73
74232;BME280;62590;52.430;4.902;2022-10-16T09:52:28;101126.59;;;12.98;67.73
74232;BME280;62590;52.430;4.902;2022-10-16T09:54:58;101113.41;;;12.95;67.73
74232;BME280;62590;52.430;4.902;2022-10-16T09:57:25;101116.94;;;12.95;67.73
74232;BME280;62590;52.430;4.902;2022-10-16T09:59:55;101121.88;;;13.00;67.74
74232;BME280;62590;52.430;4.902;2022-10-16T10:02:39;101120.19;;;12.99;67.74
74232;BME280;62590;52.430;4.902;2022-10-16T10:05:05;101126.56;;;13.07;67.74
74232;BME280;62590;52.430;4.902;2022-10-16T10:07:43;101122.69;;;13.29;67.76
74232;BME280;62590;52.430;4.902;2022-10-16T10:10:21;101134.16;;;13.40;67.77
74232;BME280;62590;52.430;4.902;2022-10-16T10:12:47;101130.75;;;13.38;67.78
74232;BME280;62590;52.430;4.902;2022-10-16T10:15:14;101131.69;;;13.47;67.77
74232;BME280;62590;52.430;4.902;2022-10-16T10:17:57;101138.47;;;13.60;67.79
74232;BME280;62590;52.430;4.902;2022-10-16T10:20:32;101128.34;;;13.72;67.78
74232;BME280;62590;52.430;4.902;2022-10-16T10:23:13;101132.16;;;13.70;67.79
74232;BME280;62590;52.430;4.902;2022-10-16T10:28:24;101160.44;;;13.93;67.81
74232;BME280;62590;52.430;4.902;2022-10-16T10:31:11;101157.81;;;14.01;67.81
74232;BME280;62590;52.430;4.902;2022-10-16T10:34:06;101172.06;;;14.20;67.82
74232;BME280;62590;52.430;4.902;2022-10-16T10:36:40;101172.03;;;14.30;67.82
74232;BME280;62590;52.430;4.902;2022-10-16T10:39:38;101185.66;;;14.28;67.83
74232;BME280;62590;52.430;4.902;2022-10-16T10:42:31;101169.81;;;14.43;67.83
74232;BME280;62590;52.430;4.902;2022-10-16T10:50:25;101177.38;;;14.75;67.87
74232;BME280;62590;52.430;4.902;2022-10-16T11:01:01;101187.66;;;15.14;67.89
74232;BME280;62590;52.430;4.902;2022-10-16T11:03:35;101195.72;;;15.32;67.90
74232;BME280;62590;52.430;4.902;2022-10-16T11:06:33;101196.59;;;15.32;67.90
74232;BME280;62590;52.430;4.902;2022-10-16T11:09:15;101204.81;;;15.23;67.89
74232;BME280;62590;52.430;4.902;2022-10-16T11:14:45;101196.34;;;15.26;67.89
74232;BME280;62590;52.430;4.902;2022-10-16T11:20:31;101194.84;;;15.23;67.90
74232;BME280;62590;52.430;4.902;2022-10-16T11:23:26;101207.16;;;15.26;67.90
74232;BME280;62590;52.430;4.902;2022-10-16T11:25:57;101207.88;;;15.28;67.90
74232;BME280;62590;52.430;4.902;2022-10-16T11:28:48;101205.63;;;15.41;67.90
74232;BME280;62590;52.430;4.902;2022-10-16T11:31:19;101208.22;;;15.50;67.92
74232;BME280;62590;52.430;4.902;2022-10-16T11:36:47;101211.41;;;15.46;67.91
74232;BME280;62590;52.430;4.902;2022-10-16T11:41:52;101221.75;;;15.33;67.89
74232;BME280;62590;52.430;4.902;2022-10-16T11:47:16;101233.84;;;15.64;67.92
74232;BME280;62590;52.430;4.902;2022-10-16T11:49:45;101229.88;;;15.50;67.92
74232;BME280;62590;52.430;4.902;2022-10-16T11:52:46;101229.50;;;15.45;67.91
74232;BME280;62590;52.430;4.902;2022-10-16T11:55:20;101232.50;;;15.42;67.92
74232;BME280;62590;52.430;4.902;2022-10-16T11:57:54;101232.56;;;15.50;67.91
74232;BME280;62590;52.430;4.902;2022-10-16T12:08:36;101241.31;;;15.70;67.93
74232;BME280;62590;52.430;4.902;2022-10-16T12:13:51;101252.81;;;15.46;67.92
74232;BME280;62590;52.430;4.902;2022-10-16T12:18:44;101255.06;;;15.51;67.92
74232;BME280;62590;52.430;4.902;2022-10-16T12:21:11;101251.50;;;15.50;67.92
74232;BME280;62590;52.430;4.902;2022-10-16T12:26:13;101259.41;;;15.70;67.93
74232;BME280;62590;52.430;4.902;2022-10-16T12:28:39;101261.00;;;15.80;67.93
74232;BME280;62590;52.430;4.902;2022-10-16T12:31:07;101274.38;;;15.56;67.92
74232;BME280;62590;52.430;4.902;2022-10-16T12:33:41;101273.84;;;15.78;67.93
74232;BME280;62590;52.430;4.902;2022-10-16T12:36:29;101278.19;;;15.45;67.90
74232;BME280;62590;52.430;4.902;2022-10-16T12:38:55;101278.19;;;15.45;67.90
74232;BME280;62590;52.430;4.902;2022-10-16T12:41:34;101270.06;;;15.71;67.93
74232;BME280;62590;52.430;4.902;2022-10-16T12:44:01;101271.81;;;15.80;67.93
74232;BME280;62590;52.430;4.902;2022-10-16T12:49:20;101261.75;;;15.98;67.95
74232;BME280;62590;52.430;4.902;2022-10-16T12:51:46;101267.22;;;16.06;67.96
74232;BME280;62590;52.430;4.902;2022-10-16T12:54:44;101267.97;;;16.16;67.95
74232;BME280;62590;52.430;4.902;2022-10-16T12:57:28;101284.44;;;15.97;67.96
74232;BME280;62590;52.430;4.902;2022-10-16T13:00:22;101281.84;;;15.88;67.95
74232;BME280;62590;52.430;4.902;2022-10-16T13:16:56;101273.31;;;15.75;67.92
74232;BME280;62590;52.430;4.902;2022-10-16T13:30:16;101300.03;;;15.34;67.91
74232;BME280;62590;52.430;4.902;2022-10-16T13:32:48;101303.09;;;15.39;67.90
74232;BME280;62590;52.430;4.902;2022-10-16T13:35:20;101305.56;;;15.33;67.91
74232;BME280;62590;52.430;4.902;2022-10-16T13:37:46;101306.06;;;15.28;67.90
74232;BME280;62590;52.430;4.902;2022-10-16T13:40:19;101309.91;;;15.26;67.90
74232;BME280;62590;52.430;4.902;2022-10-16T13:42:45;101316.78;;;15.20;67.91
74232;BME280;62590;52.430;4.902;2022-10-16T13:45:21;101318.63;;;15.20;67.90
74232;BME280;62590;52.430;4.902;2022-10-16T13:47:46;101322.03;;;15.22;67.89
74232;BME280;62590;52.430;4.902;2022-10-16T13:50:17;101323.81;;;15.13;67.88
74232;BME280;62590;52.430;4.902;2022-10-16T13:52:43;101332.31;;;15.18;67.89
74232;BME280;62590;52.430;4.902;2022-10-16T13:55:16;101330.63;;;15.17;67.89
74232;BME280;62590;52.430;4.902;2022-10-16T13:57:42;101328.84;;;15.08;67.89
74232;BME280;62590;52.430;4.902;2022-10-16T14:00:22;101334.47;;;15.15;67.89
74232;BME280;62590;52.430;4.902;2022-10-16T14:03:01;101333.78;;;15.13;67.90
74232;BME280;62590;52.430;4.902;2022-10-16T14:05:28;101340.03;;;15.13;67.88
74232;BME280;62590;52.430;4.902;2022-10-16T14:07:54;101333.63;;;15.14;67.90
74232;BME280;62590;52.430;4.902;2022-10-16T14:10:26;101337.56;;;15.20;67.90
74232;BME280;62590;52.430;4.902;2022-10-16T14:13:05;101340.91;;;15.14;67.89
74232;BME280;62590;52.430;4.902;2022-10-16T14:15:33;101333.78;;;15.13;67.90
74232;BME280;62590;52.430;4.902;2022-10-16T14:17:59;101333.16;;;15.19;67.91
74232;BME280;62590;52.430;4.902;2022-10-16T14:20:28;101335.72;;;15.20;67.91
74232;BME280;62590;52.430;4.902;2022-10-16T14:23:04;101334.78;;;15.12;67.89
74232;BME280;62590;52.430;4.902;2022-10-16T14:25:31;101348.69;;;15.17;67.89
74232;BME280;62590;52.430;4.902;2022-10-16T14:30:55;101342.75;;;15.13;67.90
74232;BME280;62590;52.430;4.902;2022-10-16T14:33:32;101334.25;;;15.08;67.89
74232;BME280;62590;52.430;4.902;2022-10-16T14:38:37;101340.38;;;15.10;67.89
74232;BME280;62590;52.430;4.902;2022-10-16T14:41:03;101343.19;;;15.09;67.90
74232;BME280;62590;52.430;4.902;2022-10-16T14:43:33;101352.63;;;15.05;67.88
74232;BME280;62590;52.430;4.902;2022-10-16T14:45:59;101361.03;;;15.02;67.88